Time;durP1;ratioP1;P1;durP2;ratioP2;P2;SDS_P1;SDS_P2;PMS_P1;PMS_P2;Temp;Humidity;BMP_temperature;BMP_pressure;BME280_temperature;BME280_humidity;BME280_pressure;Samples;Min_cycle;Max_cycle;Signal;HPM_P1;HPM_P2
2023/08/27 00:04:58;;;;;;;5.40;3.97;;;;;;;;;;10355451;28;20074;-63
2023/08/27 00:09:57;;;;;;;4.85;4.18;;;;;;;;;;10356779;28;20071;-62
2023/08/27 00:14:56;;;;;;;4.82;4.13;;;;;;;;;;10356356;28;20071;-62
2023/08/27 00:19:55;;;;;;;7.15;4.43;;;;;;;;;;10356806;28;20071;-62
2023/08/27 00:24:53;;;;;;;6.47;4.57;;;;;;;;;;10355945;28;20082;-61
2023/08/27 00:29:52;;;;;;;7.15;4.57;;;;;;;;;;10355889;28;20461;-62
2023/08/27 00:34:50;;;;;;;5.63;4.28;;;;;;;;;;10355097;28;20107;-62
2023/08/27 00:39:50;;;;;;;5.18;4.10;;;;;;;;;;10337250;28;20055;-62
2023/08/27 00:44:49;;;;;;;4.97;3.90;;;;;;;;;;10353355;28;20068;-62
2023/08/27 00:49:47;;;;;;;5.93;4.55;;;;;;;;;;10337000;28;20040;-63
2023/08/27 00:54:46;;;;;;;7.00;3.97;;;;;;;;;;10355006;28;20075;-62
2023/08/27 00:59:46;;;;;;;4.43;3.85;;;;;;;;;;10336747;28;20082;-62
2023/08/27 01:04:44;;;;;;;9.45;3.90;;;;;;;;;;10354999;28;20063;-62
2023/08/27 01:09:46;;;;;;;4.40;4.00;;;;;;;;;;10354058;28;20532;-62
2023/08/27 01:14:48;;;;;;;5.00;4.53;;;;;;;;;;10353692;28;20079;-62
2023/08/27 01:19:49;;;;;;;4.95;4.43;;;;;;;;;;10336132;28;20349;-63
2023/08/27 01:24:49;;;;;;;4.53;4.10;;;;;;;;;;10328850;28;20090;-63
2023/08/27 01:29:52;;;;;;;7.35;4.20;;;;;;;;;;10335976;28;20071;-63
2023/08/27 01:34:52;;;;;;;8.03;4.03;;;;;;;;;;10334651;28;20083;-63
2023/08/27 01:39:59;;;;;;;6.03;4.68;;;;;;;;;;10352462;28;20090;-62
2023/08/27 01:44:57;;;;;;;4.40;4.00;;;;;;;;;;10352306;28;20076;-62
2023/08/27 01:49:55;;;;;;;4.82;4.07;;;;;;;;;;10351940;28;20504;-62
2023/08/27 01:54:54;;;;;;;6.53;4.35;;;;;;;;;;10353859;28;20068;-62
2023/08/27 01:59:54;;;;;;;10.15;4.30;;;;;;;;;;10351831;28;20040;-62
2023/08/27 02:04:52;;;;;;;6.63;4.15;;;;;;;;;;10340366;28;20076;-63
2023/08/27 02:09:50;;;;;;;4.72;3.80;;;;;;;;;;10351101;28;20051;-63
2023/08/27 02:14:49;;;;;;;5.00;4.05;;;;;;;;;;10320818;28;20075;-63
2023/08/27 02:19:48;;;;;;;6.57;4.57;;;;;;;;;;10342668;28;20086;-63
2023/08/27 02:24:51;;;;;;;7.80;4.70;;;;;;;;;;10316450;28;20091;-61
2023/08/27 02:29:49;;;;;;;6.15;4.78;;;;;;;;;;10323641;28;20064;-62
2023/08/27 02:34:49;;;;;;;5.72;4.72;;;;;;;;;;10303065;28;20505;-62
2023/08/27 02:39:47;;;;;;;5.70;4.00;;;;;;;;;;10302383;28;20072;-63
2023/08/27 02:44:45;;;;;;;5.53;4.65;;;;;;;;;;10327186;28;20076;-63
2023/08/27 02:49:44;;;;;;;5.50;4.57;;;;;;;;;;10328325;28;20068;-63
2023/08/27 02:54:43;;;;;;;5.13;4.38;;;;;;;;;;10327895;28;20353;-63
2023/08/27 02:59:41;;;;;;;8.43;4.60;;;;;;;;;;10325847;28;20087;-63
2023/08/27 03:04:40;;;;;;;10.50;4.70;;;;;;;;;;10307595;28;20535;-63
2023/08/27 03:09:38;;;;;;;4.85;4.35;;;;;;;;;;10307037;28;20076;-63
2023/08/27 03:14:38;;;;;;;9.57;4.85;;;;;;;;;;10324540;28;20068;-62
2023/08/27 03:19:36;;;;;;;5.03;3.70;;;;;;;;;;10320359;28;20087;-63
2023/08/27 03:24:34;;;;;;;4.25;3.85;;;;;;;;;;10324514;28;20088;-63
2023/08/27 03:29:32;;;;;;;7.00;3.80;;;;;;;;;;10322832;28;20068;-62
2023/08/27 03:34:32;;;;;;;4.32;3.78;;;;;;;;;;10321096;28;20079;-61
2023/08/27 03:39:31;;;;;;;6.13;4.45;;;;;;;;;;10300305;28;20092;-62
2023/08/27 03:44:29;;;;;;;5.57;4.78;;;;;;;;;;10321105;28;20079;-62
2023/08/27 03:49:28;;;;;;;7.90;4.15;;;;;;;;;;10323704;28;20532;-61
2023/08/27 03:54:27;;;;;;;9.55;5.35;;;;;;;;;;10305208;28;20082;-62
2023/08/27 03:59:26;;;;;;;7.13;5.13;;;;;;;;;;10293214;28;20113;-63
2023/08/27 04:04:24;;;;;;;8.23;4.55;;;;;;;;;;10320458;28;20080;-64
2023/08/27 04:09:23;;;;;;;6.18;4.85;;;;;;;;;;10313817;28;20451;-63
2023/08/27 04:14:23;;;;;;;7.22;4.40;;;;;;;;;;10319315;28;20484;-63
2023/08/27 04:19:21;;;;;;;7.97;4.93;;;;;;;;;;10318006;28;20080;-62
2023/08/27 04:24:20;;;;;;;8.50;4.90;;;;;;;;;;10330114;28;20088;-62
2023/08/27 04:29:18;;;;;;;6.70;5.20;;;;;;;;;;10354271;28;20074;-62
2023/08/27 04:34:18;;;;;;;6.93;4.95;;;;;;;;;;10355681;28;20078;-62
2023/08/27 04:39:16;;;;;;;9.10;5.07;;;;;;;;;;10354904;28;20075;-63
2023/08/27 04:44:14;;;;;;;8.57;5.60;;;;;;;;;;10336227;28;20493;-62
2023/08/27 04:49:13;;;;;;;7.93;6.00;;;;;;;;;;10335895;28;20064;-62
2023/08/27 04:54:12;;;;;;;6.43;5.07;;;;;;;;;;10336122;28;20063;-63
2023/08/27 04:59:10;;;;;;;5.97;4.72;;;;;;;;;;10336621;28;20483;-62
2023/08/27 05:04:09;;;;;;;7.95;4.70;;;;;;;;;;10335929;28;20071;-62
2023/08/27 05:09:08;;;;;;;6.45;4.88;;;;;;;;;;10336455;28;20079;-61
2023/08/27 05:14:07;;;;;;;7.20;4.25;;;;;;;;;;10339639;28;20496;-62
2023/08/27 05:19:06;;;;;;;7.30;4.40;;;;;;;;;;10335434;28;20074;-62
2023/08/27 05:24:04;;;;;;;5.00;4.25;;;;;;;;;;10351105;28;20075;-62
2023/08/27 05:29:04;;;;;;;7.28;3.92;;;;;;;;;;10351432;28;20074;-63
2023/08/27 05:34:03;;;;;;;6.93;4.45;;;;;;;;;;10351686;28;20091;-63
2023/08/27 05:39:02;;;;;;;8.90;3.90;;;;;;;;;;10328324;28;20084;-62
2023/08/27 05:44:00;;;;;;;5.78;3.58;;;;;;;;;;10332359;28;20090;-63
2023/08/27 05:48:58;;;;;;;5.32;4.82;;;;;;;;;;10333636;28;20090;-63
2023/08/27 05:53:58;;;;;;;5.22;3.90;;;;;;;;;;10334644;28;20098;-63
2023/08/27 05:58:57;;;;;;;4.03;3.63;;;;;;;;;;10317525;28;20520;-63
2023/08/27 06:03:56;;;;;;;6.80;5.80;;;;;;;;;;10345244;28;20075;-62
2023/08/27 06:08:56;;;;;;;4.35;3.83;;;;;;;;;;10331755;28;20087;-61
2023/08/27 06:13:56;;;;;;;3.75;3.13;;;;;;;;;;10324322;28;20067;-62
2023/08/27 06:18:54;;;;;;;3.83;3.28;;;;;;;;;;10354715;28;20072;-62
2023/08/27 06:23:52;;;;;;;3.60;3.17;;;;;;;;;;10340337;28;20071;-63
2023/08/27 06:28:50;;;;;;;3.45;3.13;;;;;;;;;;10338210;28;20083;-63
2023/08/27 06:33:51;;;;;;;6.57;3.67;;;;;;;;;;10341352;28;20072;-63
2023/08/27 06:38:49;;;;;;;6.05;2.92;;;;;;;;;;10341144;28;20068;-63
2023/08/27 06:43:47;;;;;;;5.32;3.40;;;;;;;;;;10341293;28;20040;-63
2023/08/27 06:48:52;;;;;;;4.10;3.70;;;;;;;;;;10341721;28;20051;-63
2023/08/27 06:53:50;;;;;;;5.57;4.80;;;;;;;;;;10358256;28;20079;-61
2023/08/27 06:58:49;;;;;;;10.73;4.18;;;;;;;;;;10358029;28;20079;-62
2023/08/27 07:03:48;;;;;;;4.22;3.70;;;;;;;;;;10341077;28;20083;-63
2023/08/27 07:08:47;;;;;;;4.07;3.67;;;;;;;;;;10358608;28;20082;-62
2023/08/27 07:13:46;;;;;;;17.63;15.88;;;;;;;;;;10339887;28;20064;-61
2023/08/27 07:18:46;;;;;;;5.20;3.03;;;;;;;;;;10358037;28;20485;-62
2023/08/27 07:23:45;;;;;;;6.85;3.83;;;;;;;;;;10340066;28;20492;-62
2023/08/27 07:28:44;;;;;;;6.40;4.13;;;;;;;;;;10339541;28;20079;-63
2023/08/27 07:33:43;;;;;;;3.20;2.88;;;;;;;;;;10339713;28;20484;-63
2023/08/27 07:38:41;;;;;;;9.63;3.63;;;;;;;;;;10355400;28;20083;-63
2023/08/27 07:43:40;;;;;;;6.28;3.22;;;;;;;;;;10339004;28;20048;-61
2023/08/27 07:48:41;;;;;;;10.38;3.28;;;;;;;;;;10352181;28;20067;-61
2023/08/27 07:53:39;;;;;;;4.97;3.60;;;;;;;;;;10339152;28;20075;-62
2023/08/27 07:58:38;;;;;;;9.38;7.93;;;;;;;;;;10338558;28;20075;-63
2023/08/27 08:03:38;;;;;;;5.22;4.13;;;;;;;;;;10337779;28;20090;-63
2023/08/27 08:08:38;;;;;;;25.17;22.88;;;;;;;;;;10356373;28;20055;-62
2023/08/27 08:13:41;;;;;;;6.63;4.00;;;;;;;;;;10356258;28;20090;-62
2023/08/27 08:18:39;;;;;;;6.05;3.10;;;;;;;;;;10356132;28;20075;-63
2023/08/27 08:23:39;;;;;;;8.23;4.20;;;;;;;;;;10354606;28;20083;-63
2023/08/27 08:28:43;;;;;;;5.22;2.67;;;;;;;;;;10356073;28;20518;-62
2023/08/27 08:33:41;;;;;;;5.22;3.58;;;;;;;;;;10355941;28;20278;-62
2023/08/27 08:38:43;;;;;;;7.05;3.67;;;;;;;;;;10355567;28;20078;-63
2023/08/27 08:43:43;;;;;;;4.35;2.65;;;;;;;;;;10355618;28;20091;-63
2023/08/27 08:48:42;;;;;;;6.72;3.45;;;;;;;;;;10347855;28;20063;-64
2023/08/27 08:53:43;;;;;;;9.93;4.20;;;;;;;;;;10353625;28;20075;-62
2023/08/27 08:58:43;;;;;;;9.15;3.10;;;;;;;;;;10354253;28;20154;-62
2023/08/27 09:03:41;;;;;;;9.20;4.40;;;;;;;;;;10352904;28;20072;-63
2023/08/27 09:08:49;;;;;;;7.70;3.70;;;;;;;;;;10354489;28;20067;-63
2023/08/27 09:13:48;;;;;;;5.45;3.35;;;;;;;;;;10354254;28;20080;-63
2023/08/27 09:18:46;;;;;;;6.15;3.47;;;;;;;;;;10345398;28;20064;-63
2023/08/27 09:23:50;;;;;;;10.93;3.95;;;;;;;;;;10354008;28;20516;-64
2023/08/27 09:28:48;;;;;;;5.90;4.03;;;;;;;;;;10353227;28;20060;-63
2023/08/27 09:33:47;;;;;;;5.18;3.10;;;;;;;;;;10354879;28;20062;-62
2023/08/27 09:38:47;;;;;;;6.60;2.78;;;;;;;;;;10360881;28;20076;-63
2023/08/27 09:43:48;;;;;;;4.78;4.10;;;;;;;;;;10362045;28;20509;-62
2023/08/27 09:48:56;;;;;;;9.82;3.90;;;;;;;;;;10361132;28;20071;-63
2023/08/27 09:53:56;;;;;;;4.93;3.50;;;;;;;;;;10362041;28;20153;-62
2023/08/27 09:58:55;;;;;;;10.38;3.20;;;;;;;;;;10361609;28;20079;-62
2023/08/27 10:03:53;;;;;;;3.58;2.70;;;;;;;;;;10362080;28;20079;-63
2023/08/27 10:08:52;;;;;;;3.33;2.60;;;;;;;;;;10340838;28;20540;-63
2023/08/27 10:13:52;;;;;;;5.28;3.38;;;;;;;;;;10346606;28;20476;-62
2023/08/27 10:18:52;;;;;;;3.00;2.70;;;;;;;;;;10358295;28;20496;-63
2023/08/27 10:23:51;;;;;;;4.70;2.88;;;;;;;;;;10358927;28;20072;-62
2023/08/27 10:28:49;;;;;;;3.42;3.00;;;;;;;;;;10361082;28;20079;-62
2023/08/27 10:33:50;;;;;;;5.53;3.50;;;;;;;;;;10360856;28;20071;-62
2023/08/27 10:38:49;;;;;;;6.47;3.42;;;;;;;;;;10359521;28;20068;-63
2023/08/27 10:43:47;;;;;;;4.55;4.00;;;;;;;;;;10359755;28;20048;-62
2023/08/27 10:48:50;;;;;;;6.30;3.05;;;;;;;;;;10359279;28;20067;-63
2023/08/27 10:53:56;;;;;;;4.82;3.20;;;;;;;;;;10360158;28;20491;-63
2023/08/27 10:58:57;;;;;;;3.30;2.78;;;;;;;;;;10359324;28;20501;-63
2023/08/27 11:03:57;;;;;;;6.32;3.45;;;;;;;;;;10346475;28;20485;-63
2023/08/27 11:08:56;;;;;;;3.53;2.70;;;;;;;;;;10359720;28;20086;-63
2023/08/27 11:14:05;;;;;;;4.15;2.70;;;;;;;;;;10359438;28;20476;-62
2023/08/27 11:19:26;;;;;;;3.88;2.80;;;;;;;;;;10358990;28;20075;-63
2023/08/27 11:24:27;;;;;;;5.00;2.90;;;;;;;;;;10348997;28;20509;-62
2023/08/27 11:29:26;;;;;;;6.03;2.78;;;;;;;;;;10358559;28;20080;-62
2023/08/27 11:34:26;;;;;;;4.28;2.85;;;;;;;;;;10358511;28;20075;-63
2023/08/27 11:39:25;;;;;;;7.40;3.88;;;;;;;;;;10358177;28;20082;-63
2023/08/27 11:44:24;;;;;;;9.48;3.30;;;;;;;;;;10339414;28;20079;-63
2023/08/27 11:49:29;;;;;;;2.83;2.50;;;;;;;;;;10357966;28;20350;-63
2023/08/27 11:54:30;;;;;;;8.32;2.63;;;;;;;;;;10357671;28;20064;-62
2023/08/27 11:59:29;;;;;;;6.70;3.35;;;;;;;;;;10357662;28;20072;-62
2023/08/27 12:04:27;;;;;;;4.25;3.20;;;;;;;;;;10356697;28;20082;-63
2023/08/27 12:09:28;;;;;;;2.88;2.35;;;;;;;;;;10357317;28;20067;-62
2023/08/27 12:14:27;;;;;;;2.83;2.63;;;;;;;;;;10356752;28;20441;-62
2023/08/27 12:19:25;;;;;;;7.15;2.97;;;;;;;;;;10356658;28;20086;-62
2023/08/27 12:24:29;;;;;;;6.57;2.65;;;;;;;;;;10342199;28;20087;-62
2023/08/27 12:29:29;;;;;;;4.10;2.42;;;;;;;;;;10356317;28;20082;-63
2023/08/27 12:34:34;;;;;;;4.70;2.70;;;;;;;;;;10356199;28;20072;-63
2023/08/27 12:39:34;;;;;;;5.35;2.28;;;;;;;;;;10354864;28;20154;-62
2023/08/27 12:44:32;;;;;;;3.47;2.25;;;;;;;;;;10355941;28;20067;-61
2023/08/27 12:49:30;;;;;;;4.32;2.95;;;;;;;;;;10337435;28;20485;-63
2023/08/27 12:54:29;;;;;;;4.25;2.75;;;;;;;;;;10355552;28;20071;-62
2023/08/27 12:59:28;;;;;;;7.45;3.67;;;;;;;;;;10355227;28;20083;-62
2023/08/27 13:04:29;;;;;;;8.32;3.15;;;;;;;;;;10355288;28;20072;-63
2023/08/27 13:09:27;;;;;;;3.97;2.92;;;;;;;;;;10355252;28;20094;-62
2023/08/27 13:14:26;;;;;;;4.72;2.92;;;;;;;;;;10354877;28;20083;-63
2023/08/27 13:19:25;;;;;;;2.97;2.70;;;;;;;;;;10342140;28;20477;-62
2023/08/27 13:24:23;;;;;;;8.75;2.90;;;;;;;;;;10341647;28;20076;-63
2023/08/27 13:29:21;;;;;;;2.80;2.35;;;;;;;;;;10354267;28;20083;-62
2023/08/27 13:34:20;;;;;;;4.20;2.30;;;;;;;;;;10354567;28;20074;-63
2023/08/27 13:39:19;;;;;;;4.25;3.35;;;;;;;;;;10353871;28;20118;-62
2023/08/27 13:44:17;;;;;;;4.07;2.33;;;;;;;;;;10354256;28;20078;-62
2023/08/27 13:49:16;;;;;;;5.95;2.72;;;;;;;;;;10353975;28;20500;-63
2023/08/27 13:54:14;;;;;;;5.43;2.90;;;;;;;;;;10354239;28;20067;-62
2023/08/27 13:59:13;;;;;;;9.10;3.15;;;;;;;;;;10354019;28;20067;-62
2023/08/27 14:04:12;;;;;;;6.57;2.95;;;;;;;;;;10335633;28;20071;-62
2023/08/27 14:09:10;;;;;;;5.25;2.80;;;;;;;;;;10353202;28;20075;-63
2023/08/27 14:14:08;;;;;;;6.40;3.55;;;;;;;;;;10334908;28;20067;-62
2023/08/27 14:19:08;;;;;;;6.88;3.72;;;;;;;;;;10353725;28;20497;-64
2023/08/27 14:24:06;;;;;;;6.55;3.80;;;;;;;;;;10359801;28;20083;-62
2023/08/27 14:29:05;;;;;;;3.35;2.70;;;;;;;;;;10355649;28;20520;-62
2023/08/27 14:34:04;;;;;;;7.22;3.85;;;;;;;;;;10360874;28;20064;-63
2023/08/27 14:39:03;;;;;;;5.53;3.60;;;;;;;;;;10360671;28;20075;-63
2023/08/27 14:44:02;;;;;;;8.40;3.13;;;;;;;;;;10360417;28;20070;-63
2023/08/27 14:49:00;;;;;;;3.65;2.55;;;;;;;;;;10359727;28;20072;-63
2023/08/27 14:53:58;;;;;;;4.30;3.03;;;;;;;;;;10341518;28;20068;-63
2023/08/27 14:58:58;;;;;;;6.55;3.00;;;;;;;;;;10358457;28;20063;-63
2023/08/27 15:03:56;;;;;;;6.97;3.22;;;;;;;;;;10359719;28;20516;-63
2023/08/27 15:08:54;;;;;;;4.40;3.55;;;;;;;;;;10358363;28;20060;-63
2023/08/27 15:13:52;;;;;;;6.75;3.03;;;;;;;;;;10358896;28;20067;-63
2023/08/27 15:18:52;;;;;;;7.90;3.60;;;;;;;;;;10359021;28;20067;-63
2023/08/27 15:23:50;;;;;;;3.88;3.05;;;;;;;;;;10357880;28;20080;-64
2023/08/27 15:28:48;;;;;;;5.70;3.60;;;;;;;;;;10357357;28;20070;-64
2023/08/27 15:33:47;;;;;;;6.78;3.25;;;;;;;;;;10339607;28;20497;-64
2023/08/27 15:38:46;;;;;;;8.35;2.92;;;;;;;;;;10357461;28;20075;-65
2023/08/27 15:43:45;;;;;;;6.63;3.58;;;;;;;;;;10357596;28;20488;-65
2023/08/27 15:48:43;;;;;;;4.75;3.20;;;;;;;;;;10339948;28;20464;-65
2023/08/27 15:53:41;;;;;;;5.50;3.70;;;;;;;;;;10357189;28;20113;-65
2023/08/27 15:58:41;;;;;;;6.22;3.85;;;;;;;;;;10356955;28;20071;-64
2023/08/27 16:03:41;;;;;;;4.45;3.22;;;;;;;;;;10342449;28;20076;-64
2023/08/27 16:08:39;;;;;;;9.50;3.60;;;;;;;;;;10343121;28;20080;-63
2023/08/27 16:13:38;;;;;;;10.50;3.50;;;;;;;;;;10328606;28;20166;-63
2023/08/27 16:18:37;;;;;;;10.10;3.47;;;;;;;;;;10335892;28;20071;-63
2023/08/27 16:23:36;;;;;;;12.93;4.57;;;;;;;;;;10342627;28;20489;-64
2023/08/27 16:28:36;;;;;;;8.40;3.30;;;;;;;;;;10354874;28;20074;-63
2023/08/27 16:33:34;;;;;;;6.10;3.28;;;;;;;;;;10347504;28;20064;-63
2023/08/27 16:38:34;;;;;;;6.88;3.67;;;;;;;;;;10340782;28;20071;-63
2023/08/27 16:43:34;;;;;;;8.88;4.07;;;;;;;;;;10354190;28;20068;-63
2023/08/27 16:48:33;;;;;;;8.95;4.35;;;;;;;;;;10349708;28;20072;-63
2023/08/27 16:53:31;;;;;;;5.53;3.58;;;;;;;;;;10322376;28;20149;-63
2023/08/27 16:58:30;;;;;;;8.50;4.55;;;;;;;;;;10355009;28;20067;-63
2023/08/27 17:03:29;;;;;;;6.97;4.05;;;;;;;;;;10354609;28;20098;-64
2023/08/27 17:08:27;;;;;;;11.18;5.53;;;;;;;;;;10341511;28;20513;-63
2023/08/27 17:13:25;;;;;;;8.52;4.07;;;;;;;;;;10339893;28;20437;-63
2023/08/27 17:18:25;;;;;;;7.35;4.15;;;;;;;;;;10337605;28;20474;-63
2023/08/27 17:23:23;;;;;;;7.63;4.57;;;;;;;;;;10339226;28;20087;-64
2023/08/27 17:28:21;;;;;;;8.45;3.50;;;;;;;;;;10342752;28;20068;-63
2023/08/27 17:33:20;;;;;;;5.15;3.25;;;;;;;;;;10337211;28;20068;-63
2023/08/27 17:38:19;;;;;;;7.85;3.25;;;;;;;;;;10352603;28;20508;-62
2023/08/27 17:43:17;;;;;;;4.65;3.55;;;;;;;;;;10353359;28;20083;-64
2023/08/27 17:48:16;;;;;;;6.45;3.83;;;;;;;;;;10339070;28;20083;-63
2023/08/27 17:53:14;;;;;;;9.77;3.65;;;;;;;;;;10352472;28;20067;-64
2023/08/27 17:58:14;;;;;;;9.90;3.47;;;;;;;;;;10360476;28;20492;-63
2023/08/27 18:03:13;;;;;;;5.72;3.25;;;;;;;;;;10360405;28;20059;-64
2023/08/27 18:08:11;;;;;;;4.68;3.83;;;;;;;;;;10361430;28;20495;-64
2023/08/27 18:13:10;;;;;;;4.35;3.28;;;;;;;;;;10359618;28;20063;-64
2023/08/27 18:18:10;;;;;;;4.72;3.28;;;;;;;;;;10374182;28;20080;-64
2023/08/27 18:23:08;;;;;;;5.45;2.83;;;;;;;;;;10360625;28;20121;-64
2023/08/27 18:28:07;;;;;;;3.53;2.88;;;;;;;;;;10335153;28;20076;-64
2023/08/27 18:33:06;;;;;;;5.03;3.20;;;;;;;;;;10359162;28;20516;-64
2023/08/27 18:38:06;;;;;;;6.38;2.97;;;;;;;;;;10351783;28;20060;-64
2023/08/27 18:43:05;;;;;;;7.45;3.25;;;;;;;;;;10334603;28;20052;-63
2023/08/27 18:48:04;;;;;;;6.40;3.50;;;;;;;;;;10355811;28;20091;-63
2023/08/27 18:53:03;;;;;;;3.28;2.90;;;;;;;;;;10354124;28;20073;-63
2023/08/27 18:58:03;;;;;;;3.75;2.70;;;;;;;;;;10327814;28;20319;-63
2023/08/27 19:03:03;;;;;;;4.82;2.60;;;;;;;;;;10356738;28;20078;-63
2023/08/27 19:08:02;;;;;;;3.10;2.78;;;;;;;;;;10333015;28;20076;-63
2023/08/27 19:13:00;;;;;;;5.97;3.90;;;;;;;;;;10330608;28;20072;-63
2023/08/27 19:18:00;;;;;;;5.80;2.97;;;;;;;;;;10352255;28;20305;-64
2023/08/27 19:22:59;;;;;;;2.97;2.72;;;;;;;;;;10329000;28;20072;-62
2023/08/27 19:27:57;;;;;;;4.57;3.45;;;;;;;;;;10327812;28;20091;-63
2023/08/27 19:32:55;;;;;;;15.77;3.47;;;;;;;;;;10346490;28;20075;-63
2023/08/27 19:37:55;;;;;;;6.70;2.70;;;;;;;;;;10333168;28;20106;-63
2023/08/27 19:42:53;;;;;;;6.88;3.78;;;;;;;;;;10333818;28;20079;-63
2023/08/27 19:47:51;;;;;;;5.20;3.40;;;;;;;;;;10332688;28;20078;-64
2023/08/27 19:52:50;;;;;;;5.60;4.68;;;;;;;;;;10333224;28;20068;-62
2023/08/27 19:57:49;;;;;;;7.88;3.58;;;;;;;;;;10331136;28;20331;-62
2023/08/27 20:02:47;;;;;;;3.60;3.30;;;;;;;;;;10338610;28;20095;-63
2023/08/27 20:07:46;;;;;;;5.63;3.85;;;;;;;;;;10337854;28;20079;-62
2023/08/27 20:12:44;;;;;;;5.65;3.72;;;;;;;;;;10333475;28;20064;-64
2023/08/27 20:17:44;;;;;;;6.00;3.92;;;;;;;;;;10330699;28;20079;-64
2023/08/27 20:22:42;;;;;;;9.25;4.18;;;;;;;;;;10322567;28;20095;-64
2023/08/27 20:27:41;;;;;;;7.82;5.03;;;;;;;;;;10323040;28;20099;-63
2023/08/27 20:32:40;;;;;;;6.63;5.22;;;;;;;;;;10336655;28;20102;-63
2023/08/27 20:37:39;;;;;;;7.50;4.40;;;;;;;;;;10324368;28;20341;-63
2023/08/27 20:42:38;;;;;;;7.38;5.25;;;;;;;;;;10336121;28;20076;-63
2023/08/27 20:47:36;;;;;;;8.68;5.45;;;;;;;;;;10339829;28;20143;-64
2023/08/27 20:52:35;;;;;;;5.57;4.63;;;;;;;;;;10331390;28;20078;-63
2023/08/27 20:57:34;;;;;;;5.25;4.75;;;;;;;;;;10333894;28;20067;-63
2023/08/27 21:02:32;;;;;;;6.45;5.32;;;;;;;;;;10344994;28;20083;-64
2023/08/27 21:07:30;;;;;;;5.70;4.60;;;;;;;;;;10347278;28;20074;-63
2023/08/27 21:12:29;;;;;;;7.68;4.78;;;;;;;;;;10354861;28;20079;-64
2023/08/27 21:17:32;;;;;;;6.72;4.13;;;;;;;;;;10354638;28;20063;-63
2023/08/27 21:22:31;;;;;;;5.10;4.18;;;;;;;;;;10354583;28;20489;-64
2023/08/27 21:27:29;;;;;;;6.95;4.90;;;;;;;;;;10354398;28;20508;-64
2023/08/27 21:32:28;;;;;;;6.32;4.65;;;;;;;;;;10346888;28;20068;-63
2023/08/27 21:37:28;;;;;;;5.38;4.28;;;;;;;;;;10353994;28;20068;-64
2023/08/27 21:42:26;;;;;;;8.38;5.57;;;;;;;;;;10354196;28;20071;-64
2023/08/27 21:47:24;;;;;;;6.53;4.95;;;;;;;;;;10353710;28;20087;-63
2023/08/27 21:52:23;;;;;;;6.72;6.10;;;;;;;;;;10353725;28;20090;-63
2023/08/27 21:57:22;;;;;;;8.10;5.18;;;;;;;;;;10353505;28;20068;-63
2023/08/27 22:02:20;;;;;;;6.53;5.10;;;;;;;;;;10353259;28;20099;-63
2023/08/27 22:07:19;;;;;;;7.25;4.07;;;;;;;;;;10353474;28;20080;-63
2023/08/27 22:12:17;;;;;;;5.30;4.10;;;;;;;;;;10353092;28;20098;-63
2023/08/27 22:17:17;;;;;;;6.68;4.95;;;;;;;;;;10353187;28;20075;-64
2023/08/27 22:22:15;;;;;;;10.18;4.25;;;;;;;;;;10353409;28;20075;-64
2023/08/27 22:27:13;;;;;;;5.75;4.28;;;;;;;;;;10352995;28;20103;-63
2023/08/27 22:32:11;;;;;;;5.78;3.35;;;;;;;;;;10352991;28;20072;-64
2023/08/27 22:37:12;;;;;;;7.55;4.05;;;;;;;;;;10352700;28;20060;-63
2023/08/27 22:42:10;;;;;;;9.07;3.72;;;;;;;;;;10344635;28;20079;-63
2023/08/27 22:47:08;;;;;;;4.28;3.67;;;;;;;;;;10359877;28;20079;-63
2023/08/27 22:52:07;;;;;;;4.93;3.97;;;;;;;;;;10360349;28;20044;-63
2023/08/27 22:57:06;;;;;;;7.15;3.88;;;;;;;;;;10359863;28;20059;-64
2023/08/27 23:02:04;;;;;;;5.53;3.50;;;;;;;;;;10359925;28;20057;-64
2023/08/27 23:07:03;;;;;;;8.68;3.83;;;;;;;;;;10360113;28;20064;-64
2023/08/27 23:12:01;;;;;;;5.90;3.60;;;;;;;;;;10359313;28;20083;-64
2023/08/27 23:17:01;;;;;;;8.25;3.35;;;;;;;;;;10358617;28;20060;-65
2023/08/27 23:22:00;;;;;;;4.20;2.97;;;;;;;;;;10359177;28;20086;-63
2023/08/27 23:26:58;;;;;;;6.55;3.70;;;;;;;;;;10359076;28;20485;-65
2023/08/27 23:31:56;;;;;;;6.70;3.85;;;;;;;;;;10359088;28;20809;-63
2023/08/27 23:36:59;;;;;;;4.53;3.55;;;;;;;;;;10358403;28;20082;-63
2023/08/27 23:41:58;;;;;;;4.22;3.00;;;;;;;;;;10358774;28;20071;-64
2023/08/27 23:46:56;;;;;;;6.13;3.50;;;;;;;;;;10356881;28;20071;-62
2023/08/27 23:51:55;;;;;;;5.25;3.33;;;;;;;;;;10358053;28;20040;-63
2023/08/27 23:56:54;;;;;;;5.38;3.47;;;;;;;;;;10357693;28;20475;-64
